sim
Sign-in with your pilot id or email,
or register
Callsign
Passwort

Schedule Details

Flight Number: OEO1644
Departure: Berlin Tegel Airport (EDDT) at 12:10
Arrival: Gothenburg Landvetter Airport (ESGG) at 13:35

Weather Information
Getting current METAR information for EDDT 251250Z 18011KT CAVOK 17/09 Q1007 NOSIG
Getting current METAR information for ESGG 251250Z 20019KT 9000 -RA BKN008 11/10 Q0998

Schedule Frequency

Route Map